Time,TemperatureF,DewpointF,PressureIn,WindDirection,WindDirectionDegrees,WindSpeedMPH,WindSpeedGustMPH,Humidity,HourlyPrecipIn,Conditions,Clouds,dailyrainin,SoftwareType,DateUTC
2013-07-28 00:02:00,57.0,53.0,-100.00,West,260,1.0,2.0,87,0.00,,,-99.99,,2013-07-28 05:02:00,
2013-07-28 00:12:00,57.0,53.0,-100.00,West,280,0.0,2.0,86,0.00,,,-99.99,,2013-07-28 05:12:00,
2013-07-28 00:32:00,56.0,53.0,-100.00,NNW,330,1.0,2.0,87,0.00,,,-99.99,,2013-07-28 05:32:00,
2013-07-28 00:43:00,56.0,53.0,-100.00,WNW,300,1.0,2.0,88,0.00,,,-99.99,,2013-07-28 05:43:00,
2013-07-28 00:52:00,56.0,53.0,-100.00,WNW,300,0.0,1.0,90,0.00,,,-99.99,,2013-07-28 05:52:00,
2013-07-28 01:02:00,55.0,52.0,-100.00,WNW,300,0.0,0.0,90,0.00,,,-99.99,,2013-07-28 06:02:00,
2013-07-28 01:12:00,55.0,52.0,-100.00,WNW,300,0.0,0.0,90,0.00,,,-99.99,,2013-07-28 06:12:00,
2013-07-28 01:22:00,54.0,52.0,-100.00,SSW,200,0.0,1.0,90,0.00,,,-99.99,,2013-07-28 06:22:00,
2013-07-28 01:32:00,54.0,52.0,-100.00,SSW,200,0.0,1.0,90,0.00,,,-99.99,,2013-07-28 06:32:00,
2013-07-28 01:43:00,54.0,51.0,-100.00,West,270,0.0,2.0,87,0.00,,,-99.99,,2013-07-28 06:43:00,
2013-07-28 01:52:00,54.0,51.0,-100.00,West,270,0.0,2.0,87,0.00,,,-99.99,,2013-07-28 06:52:00,
2013-07-28 02:02:00,55.0,51.0,-100.00,WSW,240,1.0,4.0,87,0.00,,,-99.99,,2013-07-28 07:02:00,
2013-07-28 02:12:00,55.0,52.0,-100.00,WNW,290,1.0,4.0,87,0.00,,,-99.99,,2013-07-28 07:12:00,
2013-07-28 02:32:00,55.0,51.0,-100.00,NNW,330,1.0,4.0,86,0.00,,,-99.99,,2013-07-28 07:32:00,
2013-07-28 02:43:00,55.0,51.0,-100.00,West,265,1.0,3.0,85,0.00,,,-99.99,,2013-07-28 07:43:00,
2013-07-28 03:02:00,55.0,51.0,-100.00,NW,310,2.0,3.0,84,0.00,,,-99.99,,2013-07-28 08:02:00,
2013-07-28 03:12:00,55.0,50.0,-100.00,WNW,295,4.0,6.0,83,0.00,,,-99.99,,2013-07-28 08:12:00,
2013-07-28 03:22:00,54.0,49.0,-100.00,NW,310,4.0,6.0,82,0.00,,,-99.99,,2013-07-28 08:22:00,
2013-07-28 03:33:00,54.0,49.0,-100.00,NW,310,4.0,6.0,82,0.00,,,-99.99,,2013-07-28 08:33:00,
2013-07-28 03:42:00,55.0,49.0,-100.00,NW,320,3.0,5.0,81,0.00,,,-99.99,,2013-07-28 08:42:00,
2013-07-28 03:53:00,55.0,49.0,-100.00,NW,320,3.0,5.0,81,0.00,,,-99.99,,2013-07-28 08:53:00,
2013-07-28 04:02:00,55.0,49.0,-100.00,West,270,1.0,5.0,79,0.00,,,-99.99,,2013-07-28 09:02:00,
2013-07-28 04:12:00,55.0,49.0,-100.00,WNW,285,2.0,6.0,78,0.00,,,-99.99,,2013-07-28 09:12:00,
2013-07-28 04:22:00,55.0,49.0,-100.00,NW,305,5.0,6.0,78,0.00,,,-99.99,,2013-07-28 09:22:00,
2013-07-28 04:32:00,55.0,49.0,-100.00,NW,305,5.0,6.0,78,0.00,,,-99.99,,2013-07-28 09:32:00,
2013-07-28 04:43:00,56.0,49.0,-100.00,WNW,290,2.0,4.0,79,0.00,,,-99.99,,2013-07-28 09:43:00,
2013-07-28 04:53:00,56.0,49.0,-100.00,WNW,290,2.0,4.0,79,0.00,,,-99.99,,2013-07-28 09:53:00,
2013-07-28 05:02:00,55.0,49.0,-100.00,NW,305,3.0,4.0,80,0.00,,,-99.99,,2013-07-28 10:02:00,
2013-07-28 05:12:00,55.0,49.0,-100.00,WNW,285,4.0,6.0,81,0.00,,,-99.99,,2013-07-28 10:12:00,
2013-07-28 05:22:00,55.0,49.0,-100.00,NW,305,2.0,7.0,81,0.00,,,-99.99,,2013-07-28 10:22:00,
2013-07-28 05:33:00,55.0,49.0,-100.00,NW,305,2.0,7.0,81,0.00,,,-99.99,,2013-07-28 10:33:00,
2013-07-28 05:42:00,54.0,49.0,-100.00,West,270,5.0,6.0,84,0.00,,,-99.99,,2013-07-28 10:42:00,
2013-07-28 05:52:00,54.0,49.0,-100.00,West,270,5.0,6.0,84,0.00,,,-99.99,,2013-07-28 10:52:00,
2013-07-28 06:12:00,54.0,50.0,-100.00,NW,305,6.0,6.0,84,0.00,,,-99.99,,2013-07-28 11:12:00,
2013-07-28 06:33:00,54.0,49.0,-100.00,WNW,300,4.0,6.0,84,0.00,,,-99.99,,2013-07-28 11:33:00,
2013-07-28 06:43:00,54.0,49.0,-100.00,West,265,4.0,6.0,84,0.00,,,-99.99,,2013-07-28 11:43:00,
2013-07-28 07:02:00,55.0,48.0,-100.00,WNW,290,5.0,6.0,78,0.00,,,-99.99,,2013-07-28 12:02:00,
2013-07-28 07:12:00,55.0,48.0,-100.00,West,260,4.0,5.0,77,0.00,,,-99.99,,2013-07-28 12:12:00,
2013-07-28 07:33:00,56.0,48.0,-100.00,West,275,3.0,4.0,74,0.00,,,-99.99,,2013-07-28 12:33:00,
2013-07-28 07:43:00,57.0,48.0,-100.00,West,265,3.0,5.0,72,0.00,,,-99.99,,2013-07-28 12:43:00,
2013-07-28 07:53:00,58.0,48.0,-100.00,WSW,255,4.0,6.0,70,0.00,,,-99.99,,2013-07-28 12:53:00,
2013-07-28 08:12:00,60.0,49.0,-100.00,WNW,295,6.0,9.0,68,0.00,,,-99.99,,2013-07-28 13:12:00,
2013-07-28 08:22:00,60.0,49.0,-100.00,WNW,295,6.0,9.0,68,0.00,,,-99.99,,2013-07-28 13:22:00,
2013-07-28 08:32:00,60.0,49.0,-100.00,WNW,290,7.0,12.0,67,0.00,,,-99.99,,2013-07-28 13:32:00,
2013-07-28 08:43:00,61.0,50.0,-100.00,WNW,295,9.0,11.0,66,0.00,,,-99.99,,2013-07-28 13:43:00,
2013-07-28 09:12:00,63.0,51.0,-100.00,NW,315,6.0,9.0,63,0.00,,,-99.99,,2013-07-28 14:12:00,
2013-07-28 09:23:00,64.0,51.0,-100.00,WNW,300,7.0,12.0,62,0.00,,,-99.99,,2013-07-28 14:23:00,
2013-07-28 09:33:00,64.0,51.0,-100.00,WNW,290,9.0,12.0,61,0.00,,,-99.99,,2013-07-28 14:33:00,
2013-07-28 09:43:00,65.0,50.0,-100.00,NW,310,9.0,13.0,58,0.00,,,-99.99,,2013-07-28 14:43:00,
2013-07-28 09:53:00,65.0,50.0,-100.00,NW,320,7.0,13.0,57,0.00,,,-99.99,,2013-07-28 14:53:00,
2013-07-28 10:03:00,65.0,50.0,-100.00,NW,320,7.0,13.0,57,0.00,,,-99.99,,2013-07-28 15:03:00,
2013-07-28 10:13:00,66.0,49.0,-100.00,NW,320,7.0,12.0,55,0.00,,,-99.99,,2013-07-28 15:13:00,
2013-07-28 10:22:00,66.0,49.0,-100.00,NW,320,7.0,12.0,54,0.00,,,-99.99,,2013-07-28 15:22:00,
2013-07-28 10:32:00,66.0,49.0,-100.00,NW,320,7.0,12.0,54,0.00,,,-99.99,,2013-07-28 15:32:00,
2013-07-28 10:43:00,67.0,51.0,-100.00,NW,315,11.0,14.0,55,0.00,,,-99.99,,2013-07-28 15:43:00,
2013-07-28 11:02:00,68.0,50.0,-100.00,North,350,4.0,12.0,52,0.00,,,-99.99,,2013-07-28 16:02:00,
2013-07-28 11:12:00,68.0,49.0,-100.00,WNW,285,11.0,14.0,50,0.00,,,-99.99,,2013-07-28 16:12:00,
2013-07-28 11:33:00,68.0,48.0,-100.00,NW,305,13.0,17.0,48,0.00,,,-99.99,,2013-07-28 16:33:00,
2013-07-28 11:43:00,69.0,49.0,-100.00,NW,310,11.0,18.0,48,0.00,,,-99.99,,2013-07-28 16:43:00,
2013-07-28 12:02:00,70.0,49.0,-100.00,NW,305,8.0,14.0,48,0.00,,,-99.99,,2013-07-28 17:02:00,
2013-07-28 12:12:00,71.0,49.0,-100.00,NW,320,9.0,14.0,47,0.00,,,-99.99,,2013-07-28 17:12:00,
2013-07-28 12:32:00,70.0,48.0,-100.00,NNW,335,10.0,17.0,45,0.00,,,-99.99,,2013-07-28 17:32:00,
2013-07-28 12:43:00,70.0,48.0,-100.00,NW,320,13.0,19.0,44,0.00,,,-99.99,,2013-07-28 17:43:00,
2013-07-28 13:03:00,71.0,48.0,-100.00,WNW,300,13.0,20.0,44,0.00,,,-99.99,,2013-07-28 18:03:00,
2013-07-28 13:33:00,71.0,48.0,-100.00,West,270,11.0,20.0,42,0.00,,,-99.99,,2013-07-28 18:33:00,
2013-07-28 13:43:00,72.0,48.0,-100.00,WNW,290,14.0,18.0,42,0.00,,,-99.99,,2013-07-28 18:43:00,
2013-07-28 13:52:00,72.0,48.0,-100.00,NW,320,13.0,19.0,42,0.00,,,-99.99,,2013-07-28 18:52:00,
2013-07-28 14:02:00,73.0,48.0,-100.00,NW,315,10.0,19.0,41,0.00,,,-99.99,,2013-07-28 19:02:00,
2013-07-28 14:12:00,73.0,48.0,-100.00,WNW,295,11.0,18.0,41,0.00,,,-99.99,,2013-07-28 19:12:00,
2013-07-28 14:33:00,73.0,47.0,-100.00,WSW,255,5.0,15.0,40,0.00,,,-99.99,,2013-07-28 19:33:00,
2013-07-28 14:43:00,73.0,49.0,-100.00,NW,315,9.0,17.0,41,0.00,,,-99.99,,2013-07-28 19:43:00,
2013-07-28 15:23:00,75.0,48.0,-100.00,NW,310,12.0,16.0,39,0.00,,,-99.99,,2013-07-28 20:23:00,
2013-07-28 15:33:00,75.0,49.0,-100.00,West,270,9.0,16.0,39,0.00,,,-99.99,,2013-07-28 20:33:00,
2013-07-28 15:43:00,75.0,49.0,-100.00,NW,315,12.0,17.0,39,0.00,,,-99.99,,2013-07-28 20:43:00,
2013-07-28 16:13:00,76.0,49.0,-100.00,NW,320,11.0,16.0,38,0.00,,,-99.99,,2013-07-28 21:13:00,
2013-07-28 16:22:00,75.0,49.0,-100.00,WNW,300,12.0,17.0,38,0.00,,,-99.99,,2013-07-28 21:22:00,
2013-07-28 16:33:00,75.0,48.0,-100.00,NW,310,14.0,17.0,38,0.00,,,-99.99,,2013-07-28 21:33:00,
2013-07-28 16:44:00,75.0,48.0,-100.00,WNW,290,10.0,16.0,38,0.00,,,-99.99,,2013-07-28 21:44:00,
2013-07-28 16:52:00,75.0,48.0,-100.00,WNW,290,10.0,16.0,38,0.00,,,-99.99,,2013-07-28 21:52:00,
2013-07-28 17:02:00,76.0,48.0,-100.00,NW,315,14.0,18.0,38,0.00,,,-99.99,,2013-07-28 22:02:00,
2013-07-28 17:12:00,76.0,49.0,-100.00,NW,315,12.0,17.0,38,0.00,,,-99.99,,2013-07-28 22:12:00,
2013-07-28 17:32:00,76.0,49.0,-100.00,NW,315,12.0,17.0,38,0.00,,,-99.99,,2013-07-28 22:32:00,
2013-07-28 17:43:00,77.0,49.0,-100.00,WNW,300,7.0,14.0,38,0.00,,,-99.99,,2013-07-28 22:43:00,
2013-07-28 18:03:00,77.0,49.0,-100.00,NW,310,10.0,12.0,37,0.00,,,-99.99,,2013-07-28 23:03:00,
2013-07-28 18:12:00,77.0,49.0,-100.00,WNW,300,6.0,11.0,38,0.00,,,-99.99,,2013-07-28 23:12:00,
2013-07-28 18:32:00,77.0,49.0,-100.00,NW,310,9.0,14.0,37,0.00,,,-99.99,,2013-07-28 23:32:00,
2013-07-28 18:43:00,76.0,49.0,-100.00,WNW,285,6.0,13.0,37,0.00,,,-99.99,,2013-07-28 23:43:00,
2013-07-28 18:53:00,76.0,48.0,-100.00,WNW,300,9.0,12.0,37,0.00,,,-99.99,,2013-07-28 23:53:00,
2013-07-28 19:03:00,76.0,49.0,-100.00,NW,305,6.0,10.0,37,0.00,,,-99.99,,2013-07-29 00:03:00,
2013-07-28 19:32:00,76.0,49.0,-100.00,WNW,295,6.0,9.0,38,0.00,,,-99.99,,2013-07-29 00:32:00,
2013-07-28 19:43:00,75.0,49.0,-100.00,WNW,300,3.0,6.0,39,0.00,,,-99.99,,2013-07-29 00:43:00,
2013-07-28 19:52:00,75.0,49.0,-100.00,WNW,300,3.0,6.0,39,0.00,,,-99.99,,2013-07-29 00:52:00,
2013-07-28 20:02:00,75.0,48.0,-100.00,West,280,4.0,5.0,39,0.00,,,-99.99,,2013-07-29 01:02:00,
2013-07-28 20:27:00,74.0,48.0,-100.00,WNW,295,2.0,4.0,39,0.00,,,-99.99,,2013-07-29 01:27:00,
2013-07-28 20:35:00,73.0,48.0,-100.00,WNW,285,3.0,4.0,41,0.00,,,-99.99,,2013-07-29 01:35:00,
2013-07-28 20:44:00,72.0,48.0,-100.00,West,265,1.0,3.0,41,0.00,,,-99.99,,2013-07-29 01:44:00,
2013-07-28 21:14:00,70.0,50.0,-100.00,NE,45,7.0,9.0,49,0.00,,,-99.99,,2013-07-29 02:14:00,
2013-07-28 21:25:00,70.0,50.0,-100.00,NE,45,7.0,9.0,49,0.00,,,-99.99,,2013-07-29 02:25:00,
2013-07-28 21:36:00,69.0,51.0,-100.00,NE,50,6.0,9.0,52,0.00,,,-99.99,,2013-07-29 02:36:00,
2013-07-28 21:46:00,69.0,52.0,-100.00,NE,45,4.0,8.0,54,0.00,,,-99.99,,2013-07-29 02:46:00,
2013-07-28 22:03:00,68.0,53.0,-100.00,ENE,70,5.0,7.0,57,0.00,,,-99.99,,2013-07-29 03:03:00,
2013-07-28 22:17:00,67.0,53.0,-100.00,ENE,60,4.0,7.0,59,0.00,,,-99.99,,2013-07-29 03:17:00,
2013-07-28 22:24:00,67.0,53.0,-100.00,ENE,60,4.0,7.0,59,0.00,,,-99.99,,2013-07-29 03:24:00,
2013-07-28 22:36:00,67.0,53.0,-100.00,NE,55,2.0,6.0,61,0.00,,,-99.99,,2013-07-29 03:36:00,
2013-07-28 22:48:00,66.0,53.0,-100.00,North,5,0.0,3.0,63,0.00,,,-99.99,,2013-07-29 03:48:00,
2013-07-28 23:12:00,65.0,54.0,-100.00,West,265,1.0,2.0,67,0.00,,,-99.99,,2013-07-29 04:12:00,
2013-07-28 23:22:00,65.0,54.0,-100.00,South,180,0.0,1.0,68,0.00,,,-99.99,,2013-07-29 04:22:00,
2013-07-28 23:32:00,64.0,56.0,-100.00,SSW,195,0.0,0.0,74,0.00,,,-99.99,,2013-07-29 04:32:00,
2013-07-28 23:43:00,63.0,55.0,-100.00,SE,140,1.0,2.0,75,0.00,,,-99.99,,2013-07-29 04:43:00,